sensor_id;sensor_type;location;lat;lon;timestamp;temperature;humidity
51815;DHT22;37874;53.158;6.766;2023-09-19T00:00:38;24.60;59.60
51815;DHT22;37874;53.158;6.766;2023-09-19T00:03:06;24.50;59.60
51815;DHT22;37874;53.158;6.766;2023-09-19T00:05:34;24.50;59.60
51815;DHT22;37874;53.158;6.766;2023-09-19T00:08:01;24.50;59.70
51815;DHT22;37874;53.158;6.766;2023-09-19T00:10:33;24.50;59.70
51815;DHT22;37874;53.158;6.766;2023-09-19T00:13:03;24.50;59.70
51815;DHT22;37874;53.158;6.766;2023-09-19T00:15:37;24.40;59.70
51815;DHT22;37874;53.158;6.766;2023-09-19T00:18:04;24.50;59.80
51815;DHT22;37874;53.158;6.766;2023-09-19T00:20:36;24.50;59.80
51815;DHT22;37874;53.158;6.766;2023-09-19T00:23:01;24.50;59.70
51815;DHT22;37874;53.158;6.766;2023-09-19T00:25:29;24.40;59.60
51815;DHT22;37874;53.158;6.766;2023-09-19T00:27:55;24.50;59.70
51815;DHT22;37874;53.158;6.766;2023-09-19T00:30:21;24.50;59.60
51815;DHT22;37874;53.158;6.766;2023-09-19T00:32:50;24.50;59.70
51815;DHT22;37874;53.158;6.766;2023-09-19T00:35:20;24.40;59.60
51815;DHT22;37874;53.158;6.766;2023-09-19T00:37:49;24.50;59.60
51815;DHT22;37874;53.158;6.766;2023-09-19T00:40:14;24.40;59.60
51815;DHT22;37874;53.158;6.766;2023-09-19T00:42:44;24.40;59.60
51815;DHT22;37874;53.158;6.766;2023-09-19T00:45:10;24.40;59.70
51815;DHT22;37874;53.158;6.766;2023-09-19T00:47:42;24.40;59.70
51815;DHT22;37874;53.158;6.766;2023-09-19T00:50:09;24.40;59.60
51815;DHT22;37874;53.158;6.766;2023-09-19T00:52:37;24.40;59.70
51815;DHT22;37874;53.158;6.766;2023-09-19T00:55:05;24.40;59.60
51815;DHT22;37874;53.158;6.766;2023-09-19T00:57:33;24.40;59.60
51815;DHT22;37874;53.158;6.766;2023-09-19T00:59:59;24.30;59.60
51815;DHT22;37874;53.158;6.766;2023-09-19T01:02:26;24.20;59.60
51815;DHT22;37874;53.158;6.766;2023-09-19T01:04:55;24.30;59.70
51815;DHT22;37874;53.158;6.766;2023-09-19T01:07:21;24.30;59.60
51815;DHT22;37874;53.158;6.766;2023-09-19T01:09:48;24.40;59.60
51815;DHT22;37874;53.158;6.766;2023-09-19T01:12:17;24.40;59.60
51815;DHT22;37874;53.158;6.766;2023-09-19T01:14:55;24.40;59.60
51815;DHT22;37874;53.158;6.766;2023-09-19T01:17:32;24.30;59.60
51815;DHT22;37874;53.158;6.766;2023-09-19T01:20:16;24.30;59.50
51815;DHT22;37874;53.158;6.766;2023-09-19T01:30:56;24.30;59.40
51815;DHT22;37874;53.158;6.766;2023-09-19T01:33:24;24.30;59.50
51815;DHT22;37874;53.158;6.766;2023-09-19T01:35:51;24.30;59.50
51815;DHT22;37874;53.158;6.766;2023-09-19T01:38:19;24.30;59.50
51815;DHT22;37874;53.158;6.766;2023-09-19T01:40:57;24.30;59.50
51815;DHT22;37874;53.158;6.766;2023-09-19T01:43:29;24.20;59.50
51815;DHT22;37874;53.158;6.766;2023-09-19T01:46:04;24.20;59.50
51815;DHT22;37874;53.158;6.766;2023-09-19T01:54:23;24.20;59.50
51815;DHT22;37874;53.158;6.766;2023-09-19T01:56:59;24.20;59.50
51815;DHT22;37874;53.158;6.766;2023-09-19T01:59:37;24.30;59.50
51815;DHT22;37874;53.158;6.766;2023-09-19T02:02:04;24.10;59.40
51815;DHT22;37874;53.158;6.766;2023-09-19T02:04:33;24.20;59.50
51815;DHT22;37874;53.158;6.766;2023-09-19T02:07:00;24.20;59.50
51815;DHT22;37874;53.158;6.766;2023-09-19T02:09:26;24.20;59.50
51815;DHT22;37874;53.158;6.766;2023-09-19T02:11:52;24.30;59.50
51815;DHT22;37874;53.158;6.766;2023-09-19T02:14:18;24.20;59.50
51815;DHT22;37874;53.158;6.766;2023-09-19T02:16:45;24.20;59.50
51815;DHT22;37874;53.158;6.766;2023-09-19T02:19:11;24.20;59.50
51815;DHT22;37874;53.158;6.766;2023-09-19T02:21:36;24.10;59.50
51815;DHT22;37874;53.158;6.766;2023-09-19T02:24:06;24.10;59.50
51815;DHT22;37874;53.158;6.766;2023-09-19T02:26:33;24.10;59.50
51815;DHT22;37874;53.158;6.766;2023-09-19T02:29:02;24.10;59.50
51815;DHT22;37874;53.158;6.766;2023-09-19T02:31:30;24.10;59.50
51815;DHT22;37874;53.158;6.766;2023-09-19T02:33:56;24.10;59.50
51815;DHT22;37874;53.158;6.766;2023-09-19T02:36:22;24.10;59.50
51815;DHT22;37874;53.158;6.766;2023-09-19T02:38:49;24.10;59.50
51815;DHT22;37874;53.158;6.766;2023-09-19T02:41:14;24.10;59.50
51815;DHT22;37874;53.158;6.766;2023-09-19T02:43:40;24.10;59.50
51815;DHT22;37874;53.158;6.766;2023-09-19T02:46:05;24.00;59.50
51815;DHT22;37874;53.158;6.766;2023-09-19T02:48:32;24.00;59.50
51815;DHT22;37874;53.158;6.766;2023-09-19T02:50:57;24.00;59.40
51815;DHT22;37874;53.158;6.766;2023-09-19T02:53:23;24.10;59.50
51815;DHT22;37874;53.158;6.766;2023-09-19T02:55:49;24.00;59.40
51815;DHT22;37874;53.158;6.766;2023-09-19T02:58:15;24.00;59.40
51815;DHT22;37874;53.158;6.766;2023-09-19T03:00:41;23.90;59.40
51815;DHT22;37874;53.158;6.766;2023-09-19T03:03:12;24.00;59.50
51815;DHT22;37874;53.158;6.766;2023-09-19T03:05:38;24.00;59.40
51815;DHT22;37874;53.158;6.766;2023-09-19T03:08:04;24.00;59.40
51815;DHT22;37874;53.158;6.766;2023-09-19T03:10:30;24.00;59.40
51815;DHT22;37874;53.158;6.766;2023-09-19T03:12:57;24.00;59.40
51815;DHT22;37874;53.158;6.766;2023-09-19T03:15:23;24.00;59.40
51815;DHT22;37874;53.158;6.766;2023-09-19T03:17:49;24.00;59.40
51815;DHT22;37874;53.158;6.766;2023-09-19T03:20:15;24.00;59.40
51815;DHT22;37874;53.158;6.766;2023-09-19T03:22:44;24.00;59.40
51815;DHT22;37874;53.158;6.766;2023-09-19T03:25:10;23.90;59.30
51815;DHT22;37874;53.158;6.766;2023-09-19T03:27:38;24.00;59.40
51815;DHT22;37874;53.158;6.766;2023-09-19T03:30:04;24.00;59.40
51815;DHT22;37874;53.158;6.766;2023-09-19T03:32:36;23.90;59.30
51815;DHT22;37874;53.158;6.766;2023-09-19T03:35:02;23.90;59.30
51815;DHT22;37874;53.158;6.766;2023-09-19T03:37:30;23.90;59.30
51815;DHT22;37874;53.158;6.766;2023-09-19T03:39:56;23.90;59.30
51815;DHT22;37874;53.158;6.766;2023-09-19T03:42:22;23.90;59.30
51815;DHT22;37874;53.158;6.766;2023-09-19T03:44:51;23.90;59.30
51815;DHT22;37874;53.158;6.766;2023-09-19T03:47:18;23.90;59.30
51815;DHT22;37874;53.158;6.766;2023-09-19T03:49:44;23.90;59.20
51815;DHT22;37874;53.158;6.766;2023-09-19T03:52:10;23.90;59.20
51815;DHT22;37874;53.158;6.766;2023-09-19T03:54:36;23.90;59.20
51815;DHT22;37874;53.158;6.766;2023-09-19T03:57:02;23.90;59.20
51815;DHT22;37874;53.158;6.766;2023-09-19T03:59:28;23.90;59.20
51815;DHT22;37874;53.158;6.766;2023-09-19T04:01:54;23.80;59.10
51815;DHT22;37874;53.158;6.766;2023-09-19T04:04:22;23.90;59.20
51815;DHT22;37874;53.158;6.766;2023-09-19T04:06:53;23.90;59.20
51815;DHT22;37874;53.158;6.766;2023-09-19T04:09:18;23.90;59.20
51815;DHT22;37874;53.158;6.766;2023-09-19T04:11:44;23.80;59.20
51815;DHT22;37874;53.158;6.766;2023-09-19T04:14:09;23.90;59.20
51815;DHT22;37874;53.158;6.766;2023-09-19T04:16:35;23.80;59.20
51815;DHT22;37874;53.158;6.766;2023-09-19T04:19:01;23.80;59.30
51815;DHT22;37874;53.158;6.766;2023-09-19T04:21:28;23.80;59.30
51815;DHT22;37874;53.158;6.766;2023-09-19T04:23:54;23.80;59.30
51815;DHT22;37874;53.158;6.766;2023-09-19T04:26:20;23.80;59.30
51815;DHT22;37874;53.158;6.766;2023-09-19T04:28:47;23.80;59.80
51815;DHT22;37874;53.158;6.766;2023-09-19T04:31:12;23.80;59.30
51815;DHT22;37874;53.158;6.766;2023-09-19T04:33:39;23.80;59.30
51815;DHT22;37874;53.158;6.766;2023-09-19T04:36:05;23.80;59.30
51815;DHT22;37874;53.158;6.766;2023-09-19T04:38:33;23.80;59.30
51815;DHT22;37874;53.158;6.766;2023-09-19T04:40:58;23.80;59.30
51815;DHT22;37874;53.158;6.766;2023-09-19T04:43:25;23.80;59.10
51815;DHT22;37874;53.158;6.766;2023-09-19T04:45:50;23.90;59.20
51815;DHT22;37874;53.158;6.766;2023-09-19T04:48:16;23.80;59.10
51815;DHT22;37874;53.158;6.766;2023-09-19T04:50:42;23.90;59.10
51815;DHT22;37874;53.158;6.766;2023-09-19T04:53:08;23.80;59.00
51815;DHT22;37874;53.158;6.766;2023-09-19T04:55:33;23.80;59.00
51815;DHT22;37874;53.158;6.766;2023-09-19T04:57:59;23.80;59.00
51815;DHT22;37874;53.158;6.766;2023-09-19T05:00:25;23.80;58.90
51815;DHT22;37874;53.158;6.766;2023-09-19T05:02:55;23.80;59.00
51815;DHT22;37874;53.158;6.766;2023-09-19T05:05:22;23.80;59.10
51815;DHT22;37874;53.158;6.766;2023-09-19T05:07:49;23.80;59.20
51815;DHT22;37874;53.158;6.766;2023-09-19T05:10:15;23.70;59.40
51815;DHT22;37874;53.158;6.766;2023-09-19T05:12:41;23.80;59.20
51815;DHT22;37874;53.158;6.766;2023-09-19T05:15:07;23.80;59.10
51815;DHT22;37874;53.158;6.766;2023-09-19T05:17:34;23.80;59.10
51815;DHT22;37874;53.158;6.766;2023-09-19T05:20:00;23.70;59.00
51815;DHT22;37874;53.158;6.766;2023-09-19T05:22:31;23.60;59.00
51815;DHT22;37874;53.158;6.766;2023-09-19T05:24:58;23.80;59.10
51815;DHT22;37874;53.158;6.766;2023-09-19T05:27:24;23.80;59.10
51815;DHT22;37874;53.158;6.766;2023-09-19T05:29:49;23.80;59.10
51815;DHT22;37874;53.158;6.766;2023-09-19T05:32:18;23.70;59.00
51815;DHT22;37874;53.158;6.766;2023-09-19T05:34:45;23.70;59.00
51815;DHT22;37874;53.158;6.766;2023-09-19T05:37:11;23.70;59.00
51815;DHT22;37874;53.158;6.766;2023-09-19T05:39:36;23.70;59.00
51815;DHT22;37874;53.158;6.766;2023-09-19T05:42:03;23.70;59.00
51815;DHT22;37874;53.158;6.766;2023-09-19T05:44:29;23.70;59.00
51815;DHT22;37874;53.158;6.766;2023-09-19T05:46:54;23.70;59.00
51815;DHT22;37874;53.158;6.766;2023-09-19T05:49:22;23.70;59.00
51815;DHT22;37874;53.158;6.766;2023-09-19T05:51:47;23.60;58.90
51815;DHT22;37874;53.158;6.766;2023-09-19T05:54:13;23.60;58.80
51815;DHT22;37874;53.158;6.766;2023-09-19T05:56:39;23.70;58.90
51815;DHT22;37874;53.158;6.766;2023-09-19T05:59:04;23.70;58.90
51815;DHT22;37874;53.158;6.766;2023-09-19T06:01:31;23.70;59.50
51815;DHT22;37874;53.158;6.766;2023-09-19T06:03:58;23.70;59.00
51815;DHT22;37874;53.158;6.766;2023-09-19T06:06:26;23.70;59.50
51815;DHT22;37874;53.158;6.766;2023-09-19T06:08:51;23.70;58.90
51815;DHT22;37874;53.158;6.766;2023-09-19T06:11:17;23.80;58.90
51815;DHT22;37874;53.158;6.766;2023-09-19T06:13:45;23.70;58.90
51815;DHT22;37874;53.158;6.766;2023-09-19T06:16:13;23.70;58.80
51815;DHT22;37874;53.158;6.766;2023-09-19T06:18:38;23.70;58.80
51815;DHT22;37874;53.158;6.766;2023-09-19T06:21:07;23.70;58.90
51815;DHT22;37874;53.158;6.766;2023-09-19T06:23:34;23.70;58.80
51815;DHT22;37874;53.158;6.766;2023-09-19T06:26:00;23.70;58.70
51815;DHT22;37874;53.158;6.766;2023-09-19T06:28:26;23.80;58.70
51815;DHT22;37874;53.158;6.766;2023-09-19T06:30:56;23.80;58.70
51815;DHT22;37874;53.158;6.766;2023-09-19T06:33:22;23.80;58.60
51815;DHT22;37874;53.158;6.766;2023-09-19T06:35:48;23.80;58.60
51815;DHT22;37874;53.158;6.766;2023-09-19T06:38:14;23.80;58.50
51815;DHT22;37874;53.158;6.766;2023-09-19T06:40:41;23.80;58.50
51815;DHT22;37874;53.158;6.766;2023-09-19T06:43:10;23.90;58.40
51815;DHT22;37874;53.158;6.766;2023-09-19T06:45:36;23.80;58.30
51815;DHT22;37874;53.158;6.766;2023-09-19T06:48:01;23.90;58.30
51815;DHT22;37874;53.158;6.766;2023-09-19T06:50:28;23.80;58.20
51815;DHT22;37874;53.158;6.766;2023-09-19T06:52:56;23.90;58.30
51815;DHT22;37874;53.158;6.766;2023-09-19T06:55:25;23.90;58.30
51815;DHT22;37874;53.158;6.766;2023-09-19T06:57:53;24.00;58.30
51815;DHT22;37874;53.158;6.766;2023-09-19T07:00:22;23.90;58.20
51815;DHT22;37874;53.158;6.766;2023-09-19T07:03:03;24.00;58.20
51815;DHT22;37874;53.158;6.766;2023-09-19T07:05:37;23.90;58.40
51815;DHT22;37874;53.158;6.766;2023-09-19T07:08:07;23.90;58.20
51815;DHT22;37874;53.158;6.766;2023-09-19T07:10:35;23.90;58.20
51815;DHT22;37874;53.158;6.766;2023-09-19T07:13:04;23.90;58.10
51815;DHT22;37874;53.158;6.766;2023-09-19T07:15:34;23.90;58.10
51815;DHT22;37874;53.158;6.766;2023-09-19T07:18:07;23.90;58.10
51815;DHT22;37874;53.158;6.766;2023-09-19T07:20:36;23.90;58.00
51815;DHT22;37874;53.158;6.766;2023-09-19T07:23:02;24.00;58.00
51815;DHT22;37874;53.158;6.766;2023-09-19T07:25:28;24.00;57.90
51815;DHT22;37874;53.158;6.766;2023-09-19T07:27:58;24.00;57.80
51815;DHT22;37874;53.158;6.766;2023-09-19T07:30:26;24.00;57.60
51815;DHT22;37874;53.158;6.766;2023-09-19T07:32:52;24.10;57.50
51815;DHT22;37874;53.158;6.766;2023-09-19T07:35:18;24.10;57.40
51815;DHT22;37874;53.158;6.766;2023-09-19T07:37:46;24.10;57.40
51815;DHT22;37874;53.158;6.766;2023-09-19T07:40:18;24.10;57.30
51815;DHT22;37874;53.158;6.766;2023-09-19T07:42:44;24.10;57.20
51815;DHT22;37874;53.158;6.766;2023-09-19T07:45:12;24.10;57.20
51815;DHT22;37874;53.158;6.766;2023-09-19T07:47:51;24.10;57.10
51815;DHT22;37874;53.158;6.766;2023-09-19T07:50:18;24.10;57.10
51815;DHT22;37874;53.158;6.766;2023-09-19T07:52:46;24.10;57.00
51815;DHT22;37874;53.158;6.766;2023-09-19T07:55:12;24.20;57.00
51815;DHT22;37874;53.158;6.766;2023-09-19T07:57:41;24.20;56.90
51815;DHT22;37874;53.158;6.766;2023-09-19T08:00:08;24.20;56.80
51815;DHT22;37874;53.158;6.766;2023-09-19T08:02:36;24.20;56.80
51815;DHT22;37874;53.158;6.766;2023-09-19T08:05:04;24.20;56.70
51815;DHT22;37874;53.158;6.766;2023-09-19T08:07:36;24.20;56.50
51815;DHT22;37874;53.158;6.766;2023-09-19T08:10:03;24.20;56.50
51815;DHT22;37874;53.158;6.766;2023-09-19T08:12:29;24.20;56.40
51815;DHT22;37874;53.158;6.766;2023-09-19T08:14:55;24.20;56.30
51815;DHT22;37874;53.158;6.766;2023-09-19T08:17:21;24.20;56.30
51815;DHT22;37874;53.158;6.766;2023-09-19T08:19:48;24.20;56.40
51815;DHT22;37874;53.158;6.766;2023-09-19T08:22:19;24.20;56.30
51815;DHT22;37874;53.158;6.766;2023-09-19T08:24:45;24.20;56.20
51815;DHT22;37874;53.158;6.766;2023-09-19T08:27:11;24.10;56.20
51815;DHT22;37874;53.158;6.766;2023-09-19T08:29:37;24.30;56.30
51815;DHT22;37874;53.158;6.766;2023-09-19T08:32:04;24.20;56.10
51815;DHT22;37874;53.158;6.766;2023-09-19T08:34:29;24.30;56.10
51815;DHT22;37874;53.158;6.766;2023-09-19T08:36:59;24.20;56.00
51815;DHT22;37874;53.158;6.766;2023-09-19T08:39:26;24.30;56.10
51815;DHT22;37874;53.158;6.766;2023-09-19T08:41:58;24.30;55.90
51815;DHT22;37874;53.158;6.766;2023-09-19T08:44:28;24.40;56.00
51815;DHT22;37874;53.158;6.766;2023-09-19T08:47:15;24.40;55.90
51815;DHT22;37874;53.158;6.766;2023-09-19T08:49:59;24.40;55.90
51815;DHT22;37874;53.158;6.766;2023-09-19T08:52:40;24.40;55.80
51815;DHT22;37874;53.158;6.766;2023-09-19T08:55:07;24.40;55.70
51815;DHT22;37874;53.158;6.766;2023-09-19T08:57:37;24.40;55.70
51815;DHT22;37874;53.158;6.766;2023-09-19T09:00:08;24.70;55.70
51815;DHT22;37874;53.158;6.766;2023-09-19T09:02:38;24.40;55.50
51815;DHT22;37874;53.158;6.766;2023-09-19T09:05:10;24.50;55.60
51815;DHT22;37874;53.158;6.766;2023-09-19T09:07:40;24.50;55.50
51815;DHT22;37874;53.158;6.766;2023-09-19T09:10:06;24.60;55.40
51815;DHT22;37874;53.158;6.766;2023-09-19T09:12:34;24.60;55.30
51815;DHT22;37874;53.158;6.766;2023-09-19T09:15:02;24.60;55.20
51815;DHT22;37874;53.158;6.766;2023-09-19T09:17:29;24.60;55.10
51815;DHT22;37874;53.158;6.766;2023-09-19T09:19:55;24.70;55.10
51815;DHT22;37874;53.158;6.766;2023-09-19T09:22:21;24.70;55.00
51815;DHT22;37874;53.158;6.766;2023-09-19T09:24:56;24.80;55.30
51815;DHT22;37874;53.158;6.766;2023-09-19T09:27:26;24.70;55.30
51815;DHT22;37874;53.158;6.766;2023-09-19T09:29:53;24.60;55.30
51815;DHT22;37874;53.158;6.766;2023-09-19T09:32:25;24.70;55.40
51815;DHT22;37874;53.158;6.766;2023-09-19T09:35:00;24.60;55.20
51815;DHT22;37874;53.158;6.766;2023-09-19T09:37:26;24.60;55.00
51815;DHT22;37874;53.158;6.766;2023-09-19T09:40:01;24.70;54.90
51815;DHT22;37874;53.158;6.766;2023-09-19T09:42:50;24.70;54.90
51815;DHT22;37874;53.158;6.766;2023-09-19T09:45:24;24.80;54.90
51815;DHT22;37874;53.158;6.766;2023-09-19T09:47:59;25.00;54.90
51815;DHT22;37874;53.158;6.766;2023-09-19T09:50:36;24.80;54.80
51815;DHT22;37874;53.158;6.766;2023-09-19T09:53:27;24.90;54.60
51815;DHT22;37874;53.158;6.766;2023-09-19T09:56:05;25.00;54.60
51815;DHT22;37874;53.158;6.766;2023-09-19T09:59:04;24.90;54.50
51815;DHT22;37874;53.158;6.766;2023-09-19T10:01:46;24.90;54.60
51815;DHT22;37874;53.158;6.766;2023-09-19T10:04:27;25.00;54.60
51815;DHT22;37874;53.158;6.766;2023-09-19T10:07:02;24.90;54.50
51815;DHT22;37874;53.158;6.766;2023-09-19T10:09:46;24.80;54.60
51815;DHT22;37874;53.158;6.766;2023-09-19T10:12:16;25.00;54.70
51815;DHT22;37874;53.158;6.766;2023-09-19T10:14:44;24.90;54.70
51815;DHT22;37874;53.158;6.766;2023-09-19T10:17:14;24.90;54.80
51815;DHT22;37874;53.158;6.766;2023-09-19T10:19:55;24.90;54.90
51815;DHT22;37874;53.158;6.766;2023-09-19T10:22:26;24.90;54.80
51815;DHT22;37874;53.158;6.766;2023-09-19T10:24:53;24.90;54.80
51815;DHT22;37874;53.158;6.766;2023-09-19T10:27:20;25.00;54.90
51815;DHT22;37874;53.158;6.766;2023-09-19T10:29:49;24.90;54.60
51815;DHT22;37874;53.158;6.766;2023-09-19T10:32:22;24.80;56.60
51815;DHT22;37874;53.158;6.766;2023-09-19T10:34:49;24.80;57.90
51815;DHT22;37874;53.158;6.766;2023-09-19T10:37:20;24.80;58.80
51815;DHT22;37874;53.158;6.766;2023-09-19T10:39:48;24.80;59.40
51815;DHT22;37874;53.158;6.766;2023-09-19T10:42:19;24.70;60.00
51815;DHT22;37874;53.158;6.766;2023-09-19T10:44:50;24.60;59.70
51815;DHT22;37874;53.158;6.766;2023-09-19T10:47:19;24.70;59.90
51815;DHT22;37874;53.158;6.766;2023-09-19T10:49:47;24.60;60.60
51815;DHT22;37874;53.158;6.766;2023-09-19T10:52:14;24.60;60.90
51815;DHT22;37874;53.158;6.766;2023-09-19T10:54:47;24.60;60.60
51815;DHT22;37874;53.158;6.766;2023-09-19T10:57:21;24.60;61.00
51815;DHT22;37874;53.158;6.766;2023-09-19T11:00:05;24.60;59.90
51815;DHT22;37874;53.158;6.766;2023-09-19T11:05:38;24.60;60.80
51815;DHT22;37874;53.158;6.766;2023-09-19T11:08:07;24.70;61.50
51815;DHT22;37874;53.158;6.766;2023-09-19T11:10:50;24.60;61.00
51815;DHT22;37874;53.158;6.766;2023-09-19T11:13:29;24.60;60.90
51815;DHT22;37874;53.158;6.766;2023-09-19T11:26:48;24.90;60.70
51815;DHT22;37874;53.158;6.766;2023-09-19T11:29:30;25.00;60.50
51815;DHT22;37874;53.158;6.766;2023-09-19T11:31:59;24.90;60.20
51815;DHT22;37874;53.158;6.766;2023-09-19T11:34:40;24.90;60.10
51815;DHT22;37874;53.158;6.766;2023-09-19T11:39:40;24.90;60.10
51815;DHT22;37874;53.158;6.766;2023-09-19T11:42:41;25.00;59.90
51815;DHT22;37874;53.158;6.766;2023-09-19T11:45:07;25.00;59.80
51815;DHT22;37874;53.158;6.766;2023-09-19T11:47:33;25.00;59.50
51815;DHT22;37874;53.158;6.766;2023-09-19T11:50:01;25.20;59.10
51815;DHT22;37874;53.158;6.766;2023-09-19T11:52:28;25.20;58.90
51815;DHT22;37874;53.158;6.766;2023-09-19T11:55:01;25.20;59.00
51815;DHT22;37874;53.158;6.766;2023-09-19T11:57:28;25.20;59.20
51815;DHT22;37874;53.158;6.766;2023-09-19T11:59:55;25.20;58.70
51815;DHT22;37874;53.158;6.766;2023-09-19T12:02:47;25.20;58.50
51815;DHT22;37874;53.158;6.766;2023-09-19T12:05:14;25.40;58.70
51815;DHT22;37874;53.158;6.766;2023-09-19T12:07:44;25.20;58.30
51815;DHT22;37874;53.158;6.766;2023-09-19T12:10:13;25.20;58.30
51815;DHT22;37874;53.158;6.766;2023-09-19T12:12:47;25.20;58.50
51815;DHT22;37874;53.158;6.766;2023-09-19T12:15:14;25.20;58.40
51815;DHT22;37874;53.158;6.766;2023-09-19T12:17:41;25.20;58.30
51815;DHT22;37874;53.158;6.766;2023-09-19T12:20:08;25.10;58.10
51815;DHT22;37874;53.158;6.766;2023-09-19T12:22:46;25.10;58.40
51815;DHT22;37874;53.158;6.766;2023-09-19T12:25:12;25.20;58.30
51815;DHT22;37874;53.158;6.766;2023-09-19T12:27:49;25.10;58.10
51815;DHT22;37874;53.158;6.766;2023-09-19T12:30:19;25.10;58.00
51815;DHT22;37874;53.158;6.766;2023-09-19T12:32:46;25.10;58.00
51815;DHT22;37874;53.158;6.766;2023-09-19T12:35:30;25.00;58.00
51815;DHT22;37874;53.158;6.766;2023-09-19T12:37:56;25.00;57.90
51815;DHT22;37874;53.158;6.766;2023-09-19T12:40:23;24.90;58.20
51815;DHT22;37874;53.158;6.766;2023-09-19T12:42:53;25.00;58.20
51815;DHT22;37874;53.158;6.766;2023-09-19T12:45:24;25.00;58.00
51815;DHT22;37874;53.158;6.766;2023-09-19T12:48:21;25.00;58.10
51815;DHT22;37874;53.158;6.766;2023-09-19T12:53:42;25.20;58.00
51815;DHT22;37874;53.158;6.766;2023-09-19T12:56:10;25.10;57.60
51815;DHT22;37874;53.158;6.766;2023-09-19T13:01:23;25.10;57.50
51815;DHT22;37874;53.158;6.766;2023-09-19T13:04:15;25.10;57.50
51815;DHT22;37874;53.158;6.766;2023-09-19T13:06:49;25.10;57.30
51815;DHT22;37874;53.158;6.766;2023-09-19T13:09:16;25.10;57.50
51815;DHT22;37874;53.158;6.766;2023-09-19T13:11:42;25.10;57.50
51815;DHT22;37874;53.158;6.766;2023-09-19T13:14:23;25.00;57.40
51815;DHT22;37874;53.158;6.766;2023-09-19T13:19:43;25.00;57.20
51815;DHT22;37874;53.158;6.766;2023-09-19T13:22:39;25.00;57.30
51815;DHT22;37874;53.158;6.766;2023-09-19T13:25:16;25.00;57.30
51815;DHT22;37874;53.158;6.766;2023-09-19T13:27:49;24.90;57.30
51815;DHT22;37874;53.158;6.766;2023-09-19T13:30:20;24.90;57.30
51815;DHT22;37874;53.158;6.766;2023-09-19T13:32:46;24.90;57.20
51815;DHT22;37874;53.158;6.766;2023-09-19T13:35:13;24.90;57.10
51815;DHT22;37874;53.158;6.766;2023-09-19T13:37:40;24.80;57.30
51815;DHT22;37874;53.158;6.766;2023-09-19T13:40:10;24.80;56.90
51815;DHT22;37874;53.158;6.766;2023-09-19T13:42:37;24.80;57.10
51815;DHT22;37874;53.158;6.766;2023-09-19T13:45:03;24.80;57.10
51815;DHT22;37874;53.158;6.766;2023-09-19T13:47:32;24.80;57.20
51815;DHT22;37874;53.158;6.766;2023-09-19T13:49:59;24.70;57.00
51815;DHT22;37874;53.158;6.766;2023-09-19T13:52:26;24.70;57.20
51815;DHT22;37874;53.158;6.766;2023-09-19T13:54:57;24.70;57.00
51815;DHT22;37874;53.158;6.766;2023-09-19T13:57:23;24.60;57.20
51815;DHT22;37874;53.158;6.766;2023-09-19T13:59:49;24.60;57.20
51815;DHT22;37874;53.158;6.766;2023-09-19T14:02:15;24.60;57.80
51815;DHT22;37874;53.158;6.766;2023-09-19T14:04:44;24.60;57.00
51815;DHT22;37874;53.158;6.766;2023-09-19T14:07:10;24.60;57.40
51815;DHT22;37874;53.158;6.766;2023-09-19T14:09:40;24.60;58.40
51815;DHT22;37874;53.158;6.766;2023-09-19T14:12:06;24.60;58.90
51815;DHT22;37874;53.158;6.766;2023-09-19T14:14:32;24.60;60.40
51815;DHT22;37874;53.158;6.766;2023-09-19T14:16:58;24.60;61.00
51815;DHT22;37874;53.158;6.766;2023-09-19T14:19:27;24.50;61.30
51815;DHT22;37874;53.158;6.766;2023-09-19T14:21:52;24.50;60.30
51815;DHT22;37874;53.158;6.766;2023-09-19T14:24:21;24.50;60.40
51815;DHT22;37874;53.158;6.766;2023-09-19T14:26:47;24.40;60.70
51815;DHT22;37874;53.158;6.766;2023-09-19T14:29:13;24.40;60.70
51815;DHT22;37874;53.158;6.766;2023-09-19T14:31:40;24.40;61.10
51815;DHT22;37874;53.158;6.766;2023-09-19T14:34:06;24.40;60.70
51815;DHT22;37874;53.158;6.766;2023-09-19T14:36:32;24.40;60.30
51815;DHT22;37874;53.158;6.766;2023-09-19T14:38:58;24.50;60.20
51815;DHT22;37874;53.158;6.766;2023-09-19T14:41:25;24.40;60.10
51815;DHT22;37874;53.158;6.766;2023-09-19T14:43:54;24.40;60.60
51815;DHT22;37874;53.158;6.766;2023-09-19T14:46:23;24.30;60.60
51815;DHT22;37874;53.158;6.766;2023-09-19T14:48:51;24.30;60.00
51815;DHT22;37874;53.158;6.766;2023-09-19T14:51:17;24.40;60.00
51815;DHT22;37874;53.158;6.766;2023-09-19T14:53:44;24.40;59.90
51815;DHT22;37874;53.158;6.766;2023-09-19T14:56:11;24.30;60.50
51815;DHT22;37874;53.158;6.766;2023-09-19T14:58:37;24.30;60.10
51815;DHT22;37874;53.158;6.766;2023-09-19T15:01:12;24.40;60.10
51815;DHT22;37874;53.158;6.766;2023-09-19T15:03:41;24.20;59.50
51815;DHT22;37874;53.158;6.766;2023-09-19T15:06:12;24.30;60.10
51815;DHT22;37874;53.158;6.766;2023-09-19T15:08:40;24.20;60.00
51815;DHT22;37874;53.158;6.766;2023-09-19T15:11:08;24.30;60.00
51815;DHT22;37874;53.158;6.766;2023-09-19T15:13:36;24.40;60.30
51815;DHT22;37874;53.158;6.766;2023-09-19T15:16:08;24.30;59.90
51815;DHT22;37874;53.158;6.766;2023-09-19T15:18:37;24.30;59.80
51815;DHT22;37874;53.158;6.766;2023-09-19T15:21:04;24.30;60.60
51815;DHT22;37874;53.158;6.766;2023-09-19T15:23:30;24.30;60.10
51815;DHT22;37874;53.158;6.766;2023-09-19T15:25:58;24.30;60.10
51815;DHT22;37874;53.158;6.766;2023-09-19T15:28:23;24.30;59.90
51815;DHT22;37874;53.158;6.766;2023-09-19T15:30:49;24.30;60.00
51815;DHT22;37874;53.158;6.766;2023-09-19T15:33:15;24.10;60.00
51815;DHT22;37874;53.158;6.766;2023-09-19T15:35:41;24.40;60.30
51815;DHT22;37874;53.158;6.766;2023-09-19T15:38:07;24.20;60.00
51815;DHT22;37874;53.158;6.766;2023-09-19T15:40:33;24.30;59.90
51815;DHT22;37874;53.158;6.766;2023-09-19T15:42:59;24.20;60.20
51815;DHT22;37874;53.158;6.766;2023-09-19T15:45:26;24.30;59.80
51815;DHT22;37874;53.158;6.766;2023-09-19T15:47:52;24.20;59.80
51815;DHT22;37874;53.158;6.766;2023-09-19T15:50:19;24.20;60.10
51815;DHT22;37874;53.158;6.766;2023-09-19T15:52:52;24.20;59.90
51815;DHT22;37874;53.158;6.766;2023-09-19T15:55:19;24.20;59.70
51815;DHT22;37874;53.158;6.766;2023-09-19T15:57:45;24.20;59.80
51815;DHT22;37874;53.158;6.766;2023-09-19T16:00:11;24.20;59.90
51815;DHT22;37874;53.158;6.766;2023-09-19T16:02:39;24.20;59.80
51815;DHT22;37874;53.158;6.766;2023-09-19T16:05:05;24.20;59.60
51815;DHT22;37874;53.158;6.766;2023-09-19T16:07:32;24.20;59.60
51815;DHT22;37874;53.158;6.766;2023-09-19T16:09:58;24.20;59.70
51815;DHT22;37874;53.158;6.766;2023-09-19T16:12:25;24.20;59.60
51815;DHT22;37874;53.158;6.766;2023-09-19T16:14:51;24.30;59.50
51815;DHT22;37874;53.158;6.766;2023-09-19T16:17:17;24.20;59.60
51815;DHT22;37874;53.158;6.766;2023-09-19T16:19:43;24.20;59.50